sensor_id;sensor_type;location;lat;lon;timestamp;P1;durP1;ratioP1;P2;durP2;ratioP2
48522;SDS011;34315;50.150;11.070;2022-09-20T00:04:30;2.67;;;1.50;;
48522;SDS011;34315;50.150;11.070;2022-09-20T00:09:30;4.15;;;1.65;;
48522;SDS011;34315;50.150;11.070;2022-09-20T00:14:31;3.63;;;1.63;;
48522;SDS011;34315;50.150;11.070;2022-09-20T00:19:31;2.42;;;1.40;;
48522;SDS011;34315;50.150;11.070;2022-09-20T00:24:32;3.80;;;1.65;;
48522;SDS011;34315;50.150;11.070;2022-09-20T00:29:35;2.00;;;1.40;;
48522;SDS011;34315;50.150;11.070;2022-09-20T00:34:36;3.65;;;1.50;;
48522;SDS011;34315;50.150;11.070;2022-09-20T00:39:55;4.93;;;1.65;;
48522;SDS011;34315;50.150;11.070;2022-09-20T00:44:56;5.60;;;2.38;;
48522;SDS011;34315;50.150;11.070;2022-09-20T00:50:06;8.57;;;3.08;;
48522;SDS011;34315;50.150;11.070;2022-09-20T00:55:09;6.85;;;2.30;;
48522;SDS011;34315;50.150;11.070;2022-09-20T01:00:11;6.35;;;2.28;;
48522;SDS011;34315;50.150;11.070;2022-09-20T01:05:13;5.60;;;2.03;;
48522;SDS011;34315;50.150;11.070;2022-09-20T01:10:15;5.72;;;1.80;;
48522;SDS011;34315;50.150;11.070;2022-09-20T01:15:15;5.65;;;1.73;;
48522;SDS011;34315;50.150;11.070;2022-09-20T01:20:20;5.03;;;1.75;;
48522;SDS011;34315;50.150;11.070;2022-09-20T01:35:50;5.65;;;2.00;;
48522;SDS011;34315;50.150;11.070;2022-09-20T01:41:03;5.82;;;1.77;;
48522;SDS011;34315;50.150;11.070;2022-09-20T01:46:38;6.25;;;1.55;;
48522;SDS011;34315;50.150;11.070;2022-09-20T01:51:42;4.82;;;1.92;;
48522;SDS011;34315;50.150;11.070;2022-09-20T02:18:46;3.85;;;2.08;;
48522;SDS011;34315;50.150;11.070;2022-09-20T02:24:26;3.88;;;2.05;;
48522;SDS011;34315;50.150;11.070;2022-09-20T02:34:42;5.88;;;2.20;;
48522;SDS011;34315;50.150;11.070;2022-09-20T02:39:54;3.53;;;2.03;;
48522;SDS011;34315;50.150;11.070;2022-09-20T02:45:07;2.40;;;1.40;;
48522;SDS011;34315;50.150;11.070;2022-09-20T02:55:46;9.18;;;1.80;;
48522;SDS011;34315;50.150;11.070;2022-09-20T03:11:31;4.45;;;2.00;;
48522;SDS011;34315;50.150;11.070;2022-09-20T03:16:45;2.92;;;2.08;;
48522;SDS011;34315;50.150;11.070;2022-09-20T03:27:28;3.92;;;2.10;;
48522;SDS011;34315;50.150;11.070;2022-09-20T03:42:45;5.85;;;1.80;;
48522;SDS011;34315;50.150;11.070;2022-09-20T03:58:29;4.75;;;2.47;;
48522;SDS011;34315;50.150;11.070;2022-09-20T04:03:50;6.47;;;2.92;;
48522;SDS011;34315;50.150;11.070;2022-09-20T04:09:08;5.93;;;2.88;;
48522;SDS011;34315;50.150;11.070;2022-09-20T04:14:44;5.90;;;3.38;;
48522;SDS011;34315;50.150;11.070;2022-09-20T04:20:02;6.65;;;2.88;;
48522;SDS011;34315;50.150;11.070;2022-09-20T04:25:14;5.82;;;2.72;;
48522;SDS011;34315;50.150;11.070;2022-09-20T05:08:54;4.40;;;2.42;;
48522;SDS011;34315;50.150;11.070;2022-09-20T05:14:04;7.65;;;2.15;;
48522;SDS011;34315;50.150;11.070;2022-09-20T05:24:19;4.32;;;1.90;;
48522;SDS011;34315;50.150;11.070;2022-09-20T05:34:59;4.43;;;2.10;;
48522;SDS011;34315;50.150;11.070;2022-09-20T05:40:15;5.32;;;2.40;;
48522;SDS011;34315;50.150;11.070;2022-09-20T05:50:59;5.43;;;2.28;;
48522;SDS011;34315;50.150;11.070;2022-09-20T05:56:21;5.10;;;2.42;;
48522;SDS011;34315;50.150;11.070;2022-09-20T06:01:33;4.47;;;2.30;;
48522;SDS011;34315;50.150;11.070;2022-09-20T06:17:06;7.47;;;2.30;;
48522;SDS011;34315;50.150;11.070;2022-09-20T06:22:15;5.10;;;2.10;;
48522;SDS011;34315;50.150;11.070;2022-09-20T06:27:20;5.30;;;2.17;;
48522;SDS011;34315;50.150;11.070;2022-09-20T06:32:23;4.13;;;2.00;;
48522;SDS011;34315;50.150;11.070;2022-09-20T06:37:30;7.05;;;1.80;;
48522;SDS011;34315;50.150;11.070;2022-09-20T06:42:56;7.18;;;2.50;;
48522;SDS011;34315;50.150;11.070;2022-09-20T06:47:59;5.95;;;2.20;;
48522;SDS011;34315;50.150;11.070;2022-09-20T06:53:01;5.03;;;2.40;;
48522;SDS011;34315;50.150;11.070;2022-09-20T06:58:02;9.07;;;2.63;;
48522;SDS011;34315;50.150;11.070;2022-09-20T07:03:03;6.95;;;2.10;;
48522;SDS011;34315;50.150;11.070;2022-09-20T07:08:03;7.85;;;1.80;;
48522;SDS011;34315;50.150;11.070;2022-09-20T07:13:04;7.97;;;1.85;;
48522;SDS011;34315;50.150;11.070;2022-09-20T07:18:04;3.40;;;1.90;;
48522;SDS011;34315;50.150;11.070;2022-09-20T07:23:05;7.38;;;1.75;;
48522;SDS011;34315;50.150;11.070;2022-09-20T07:28:05;5.07;;;1.85;;
48522;SDS011;34315;50.150;11.070;2022-09-20T07:33:06;4.80;;;1.45;;
48522;SDS011;34315;50.150;11.070;2022-09-20T07:38:08;2.63;;;1.42;;
48522;SDS011;34315;50.150;11.070;2022-09-20T07:43:09;4.82;;;1.60;;
48522;SDS011;34315;50.150;11.070;2022-09-20T07:48:09;7.00;;;1.65;;
48522;SDS011;34315;50.150;11.070;2022-09-20T07:53:10;6.55;;;1.60;;
48522;SDS011;34315;50.150;11.070;2022-09-20T07:58:11;7.95;;;1.95;;
48522;SDS011;34315;50.150;11.070;2022-09-20T08:03:11;4.38;;;1.65;;
48522;SDS011;34315;50.150;11.070;2022-09-20T08:08:12;7.72;;;1.80;;
48522;SDS011;34315;50.150;11.070;2022-09-20T08:13:12;4.25;;;1.70;;
48522;SDS011;34315;50.150;11.070;2022-09-20T08:18:13;7.00;;;1.67;;
48522;SDS011;34315;50.150;11.070;2022-09-20T08:23:16;5.53;;;1.35;;
48522;SDS011;34315;50.150;11.070;2022-09-20T08:28:16;6.47;;;1.70;;
48522;SDS011;34315;50.150;11.070;2022-09-20T08:33:17;6.18;;;1.50;;
48522;SDS011;34315;50.150;11.070;2022-09-20T08:38:17;4.28;;;1.73;;
48522;SDS011;34315;50.150;11.070;2022-09-20T08:43:18;4.60;;;1.92;;
48522;SDS011;34315;50.150;11.070;2022-09-20T08:48:18;6.13;;;1.98;;
48522;SDS011;34315;50.150;11.070;2022-09-20T08:53:20;5.22;;;1.58;;
48522;SDS011;34315;50.150;11.070;2022-09-20T08:58:21;7.22;;;1.65;;
48522;SDS011;34315;50.150;11.070;2022-09-20T09:03:21;5.70;;;1.70;;
48522;SDS011;34315;50.150;11.070;2022-09-20T09:08:28;6.60;;;1.60;;
48522;SDS011;34315;50.150;11.070;2022-09-20T09:13:43;6.00;;;2.40;;
48522;SDS011;34315;50.150;11.070;2022-09-20T09:18:48;9.57;;;2.00;;
48522;SDS011;34315;50.150;11.070;2022-09-20T09:23:51;5.10;;;1.95;;
48522;SDS011;34315;50.150;11.070;2022-09-20T09:29:39;4.82;;;1.52;;
48522;SDS011;34315;50.150;11.070;2022-09-20T09:34:29;7.57;;;1.60;;
48522;SDS011;34315;50.150;11.070;2022-09-20T09:39:31;4.25;;;1.20;;
48522;SDS011;34315;50.150;11.070;2022-09-20T09:44:34;3.72;;;1.23;;
48522;SDS011;34315;50.150;11.070;2022-09-20T09:49:35;4.93;;;1.60;;
48522;SDS011;34315;50.150;11.070;2022-09-20T09:54:39;5.68;;;1.88;;
48522;SDS011;34315;50.150;11.070;2022-09-20T10:10:07;3.40;;;1.40;;
48522;SDS011;34315;50.150;11.070;2022-09-20T10:20:47;2.42;;;0.90;;
48522;SDS011;34315;50.150;11.070;2022-09-20T10:36:58;4.75;;;1.20;;
48522;SDS011;34315;50.150;11.070;2022-09-20T10:48:07;2.83;;;1.03;;
48522;SDS011;34315;50.150;11.070;2022-09-20T10:53:32;4.03;;;0.90;;
48522;SDS011;34315;50.150;11.070;2022-09-20T11:09:54;1.23;;;0.73;;
48522;SDS011;34315;50.150;11.070;2022-09-20T11:14:56;3.42;;;0.95;;
48522;SDS011;34315;50.150;11.070;2022-09-20T11:20:02;2.03;;;0.90;;
48522;SDS011;34315;50.150;11.070;2022-09-20T11:25:17;2.30;;;0.90;;
48522;SDS011;34315;50.150;11.070;2022-09-20T11:30:21;2.65;;;1.10;;
48522;SDS011;34315;50.150;11.070;2022-09-20T11:40:48;4.15;;;1.08;;
48522;SDS011;34315;50.150;11.070;2022-09-20T11:46:00;7.10;;;1.70;;
48522;SDS011;34315;50.150;11.070;2022-09-20T11:56:23;2.92;;;1.30;;
48522;SDS011;34315;50.150;11.070;2022-09-20T12:01:37;0.88;;;0.60;;
48522;SDS011;34315;50.150;11.070;2022-09-20T12:06:39;1.60;;;0.73;;
48522;SDS011;34315;50.150;11.070;2022-09-20T12:11:41;1.65;;;0.77;;
48522;SDS011;34315;50.150;11.070;2022-09-20T12:16:43;3.58;;;1.10;;
48522;SDS011;34315;50.150;11.070;2022-09-20T12:22:14;2.38;;;0.93;;
48522;SDS011;34315;50.150;11.070;2022-09-20T12:32:30;2.15;;;0.80;;
48522;SDS011;34315;50.150;11.070;2022-09-20T12:37:41;3.97;;;1.10;;
48522;SDS011;34315;50.150;11.070;2022-09-20T12:42:42;5.82;;;0.98;;
48522;SDS011;34315;50.150;11.070;2022-09-20T12:47:50;1.90;;;0.63;;
48522;SDS011;34315;50.150;11.070;2022-09-20T12:52:54;2.15;;;0.80;;
48522;SDS011;34315;50.150;11.070;2022-09-20T12:58:00;2.33;;;0.77;;
48522;SDS011;34315;50.150;11.070;2022-09-20T13:08:21;3.83;;;1.20;;
48522;SDS011;34315;50.150;11.070;2022-09-20T13:18:34;2.22;;;1.20;;
48522;SDS011;34315;50.150;11.070;2022-09-20T13:23:47;2.88;;;0.80;;
48522;SDS011;34315;50.150;11.070;2022-09-20T13:28:49;2.70;;;1.10;;
48522;SDS011;34315;50.150;11.070;2022-09-20T13:33:53;3.17;;;1.05;;
48522;SDS011;34315;50.150;11.070;2022-09-20T13:38:54;3.03;;;0.90;;
48522;SDS011;34315;50.150;11.070;2022-09-20T13:43:55;2.80;;;1.02;;
48522;SDS011;34315;50.150;11.070;2022-09-20T13:49:15;3.65;;;1.10;;
48522;SDS011;34315;50.150;11.070;2022-09-20T13:59:32;2.47;;;0.90;;
48522;SDS011;34315;50.150;11.070;2022-09-20T14:04:34;3.15;;;1.08;;
48522;SDS011;34315;50.150;11.070;2022-09-20T14:09:37;1.92;;;1.15;;
48522;SDS011;34315;50.150;11.070;2022-09-20T14:14:38;2.97;;;1.30;;
48522;SDS011;34315;50.150;11.070;2022-09-20T14:19:39;2.85;;;1.33;;
48522;SDS011;34315;50.150;11.070;2022-09-20T14:24:40;3.22;;;1.42;;
48522;SDS011;34315;50.150;11.070;2022-09-20T14:34:42;3.38;;;1.60;;
48522;SDS011;34315;50.150;11.070;2022-09-20T14:40:02;1.42;;;0.90;;
48522;SDS011;34315;50.150;11.070;2022-09-20T14:45:06;2.78;;;0.88;;
48522;SDS011;34315;50.150;11.070;2022-09-20T14:50:27;2.58;;;1.08;;
48522;SDS011;34315;50.150;11.070;2022-09-20T14:55:29;4.35;;;1.75;;
48522;SDS011;34315;50.150;11.070;2022-09-20T15:00:44;6.05;;;2.67;;
48522;SDS011;34315;50.150;11.070;2022-09-20T15:10:46;4.05;;;1.40;;
48522;SDS011;34315;50.150;11.070;2022-09-20T15:15:48;4.57;;;1.90;;
48522;SDS011;34315;50.150;11.070;2022-09-20T15:20:50;7.45;;;1.33;;
48522;SDS011;34315;50.150;11.070;2022-09-20T15:25:51;5.53;;;1.67;;
48522;SDS011;34315;50.150;11.070;2022-09-20T15:30:52;4.13;;;1.60;;
48522;SDS011;34315;50.150;11.070;2022-09-20T15:35:53;3.58;;;1.13;;
48522;SDS011;34315;50.150;11.070;2022-09-20T15:40:53;2.90;;;1.10;;
48522;SDS011;34315;50.150;11.070;2022-09-20T15:45:54;3.40;;;1.10;;
48522;SDS011;34315;50.150;11.070;2022-09-20T15:56:00;14.93;;;6.85;;
48522;SDS011;34315;50.150;11.070;2022-09-20T16:01:05;14.93;;;5.55;;
48522;SDS011;34315;50.150;11.070;2022-09-20T16:06:07;7.15;;;3.67;;
48522;SDS011;34315;50.150;11.070;2022-09-20T16:11:08;5.05;;;2.97;;
48522;SDS011;34315;50.150;11.070;2022-09-20T16:16:11;7.63;;;2.70;;
48522;SDS011;34315;50.150;11.070;2022-09-20T16:21:13;3.75;;;2.05;;
48522;SDS011;34315;50.150;11.070;2022-09-20T16:26:15;3.40;;;2.10;;
48522;SDS011;34315;50.150;11.070;2022-09-20T16:31:29;4.57;;;2.50;;
48522;SDS011;34315;50.150;11.070;2022-09-20T16:36:34;5.85;;;2.67;;
48522;SDS011;34315;50.150;11.070;2022-09-20T16:41:34;8.13;;;4.80;;
48522;SDS011;34315;50.150;11.070;2022-09-20T16:46:36;5.53;;;3.20;;
48522;SDS011;34315;50.150;11.070;2022-09-20T16:51:37;5.38;;;2.60;;
48522;SDS011;34315;50.150;11.070;2022-09-20T16:56:40;6.88;;;3.95;;
48522;SDS011;34315;50.150;11.070;2022-09-20T17:01:44;6.53;;;3.25;;
48522;SDS011;34315;50.150;11.070;2022-09-20T17:06:45;8.68;;;3.92;;
48522;SDS011;34315;50.150;11.070;2022-09-20T17:11:48;6.97;;;3.78;;
48522;SDS011;34315;50.150;11.070;2022-09-20T17:16:49;8.32;;;4.70;;
48522;SDS011;34315;50.150;11.070;2022-09-20T17:21:50;16.45;;;7.57;;
48522;SDS011;34315;50.150;11.070;2022-09-20T17:26:50;3.92;;;2.50;;
48522;SDS011;34315;50.150;11.070;2022-09-20T17:31:52;6.28;;;2.97;;
48522;SDS011;34315;50.150;11.070;2022-09-20T17:36:57;7.05;;;3.38;;
48522;SDS011;34315;50.150;11.070;2022-09-20T17:42:00;10.07;;;3.60;;
48522;SDS011;34315;50.150;11.070;2022-09-20T17:47:01;6.78;;;3.25;;
48522;SDS011;34315;50.150;11.070;2022-09-20T17:52:01;7.60;;;3.33;;
48522;SDS011;34315;50.150;11.070;2022-09-20T17:57:03;5.70;;;3.78;;
48522;SDS011;34315;50.150;11.070;2022-09-20T18:02:04;6.75;;;3.55;;
48522;SDS011;34315;50.150;11.070;2022-09-20T18:07:05;4.72;;;3.10;;
48522;SDS011;34315;50.150;11.070;2022-09-20T18:12:05;4.80;;;2.63;;
48522;SDS011;34315;50.150;11.070;2022-09-20T18:17:06;5.95;;;3.85;;
48522;SDS011;34315;50.150;11.070;2022-09-20T18:22:07;4.82;;;3.30;;
48522;SDS011;34315;50.150;11.070;2022-09-20T18:27:07;6.68;;;4.18;;
48522;SDS011;34315;50.150;11.070;2022-09-20T18:32:07;6.70;;;3.45;;
48522;SDS011;34315;50.150;11.070;2022-09-20T18:37:08;5.80;;;3.15;;
48522;SDS011;34315;50.150;11.070;2022-09-20T18:42:08;8.80;;;5.25;;
48522;SDS011;34315;50.150;11.070;2022-09-20T18:47:09;9.55;;;4.10;;
48522;SDS011;34315;50.150;11.070;2022-09-20T18:52:09;5.05;;;3.22;;
48522;SDS011;34315;50.150;11.070;2022-09-20T18:57:12;6.70;;;3.50;;
48522;SDS011;34315;50.150;11.070;2022-09-20T19:02:30;5.45;;;3.50;;
48522;SDS011;34315;50.150;11.070;2022-09-20T19:07:39;7.15;;;4.18;;
48522;SDS011;34315;50.150;11.070;2022-09-20T19:18:04;4.90;;;2.75;;
48522;SDS011;34315;50.150;11.070;2022-09-20T19:23:09;5.05;;;2.65;;
48522;SDS011;34315;50.150;11.070;2022-09-20T19:28:24;6.10;;;3.65;;
48522;SDS011;34315;50.150;11.070;2022-09-20T19:33:25;5.90;;;3.42;;
48522;SDS011;34315;50.150;11.070;2022-09-20T19:49:12;4.95;;;2.72;;
48522;SDS011;34315;50.150;11.070;2022-09-20T19:54:15;5.15;;;2.75;;
48522;SDS011;34315;50.150;11.070;2022-09-20T19:59:15;4.88;;;2.13;;
48522;SDS011;34315;50.150;11.070;2022-09-20T20:04:17;7.75;;;3.25;;
48522;SDS011;34315;50.150;11.070;2022-09-20T20:09:23;6.05;;;2.45;;
48522;SDS011;34315;50.150;11.070;2022-09-20T20:14:36;5.97;;;3.20;;
48522;SDS011;34315;50.150;11.070;2022-09-20T20:20:01;7.57;;;5.40;;
48522;SDS011;34315;50.150;11.070;2022-09-20T20:25:06;6.10;;;3.50;;
48522;SDS011;34315;50.150;11.070;2022-09-20T20:30:17;6.85;;;3.42;;
48522;SDS011;34315;50.150;11.070;2022-09-20T20:35:19;11.57;;;6.30;;
48522;SDS011;34315;50.150;11.070;2022-09-20T20:40:21;25.40;;;4.97;;
48522;SDS011;34315;50.150;11.070;2022-09-20T20:45:23;73.20;;;6.22;;
48522;SDS011;34315;50.150;11.070;2022-09-20T20:50:24;72.85;;;5.78;;
48522;SDS011;34315;50.150;11.070;2022-09-20T20:55:26;67.47;;;7.45;;
48522;SDS011;34315;50.150;11.070;2022-09-20T21:00:26;37.55;;;6.00;;
48522;SDS011;34315;50.150;11.070;2022-09-20T21:05:27;15.65;;;4.20;;
48522;SDS011;34315;50.150;11.070;2022-09-20T21:10:27;24.83;;;5.07;;
48522;SDS011;34315;50.150;11.070;2022-09-20T21:15:28;12.55;;;3.80;;
48522;SDS011;34315;50.150;11.070;2022-09-20T21:20:28;11.65;;;3.63;;
48522;SDS011;34315;50.150;11.070;2022-09-20T21:25:30;22.17;;;4.88;;
48522;SDS011;34315;50.150;11.070;2022-09-20T21:30:30;15.25;;;4.80;;
48522;SDS011;34315;50.150;11.070;2022-09-20T21:35:31;21.40;;;5.50;;
48522;SDS011;34315;50.150;11.070;2022-09-20T21:40:31;21.05;;;9.48;;
48522;SDS011;34315;50.150;11.070;2022-09-20T21:45:31;14.73;;;5.53;;
48522;SDS011;34315;50.150;11.070;2022-09-20T21:50:35;10.52;;;4.65;;
48522;SDS011;34315;50.150;11.070;2022-09-20T21:55:35;9.35;;;4.15;;
48522;SDS011;34315;50.150;11.070;2022-09-20T22:00:36;7.55;;;4.40;;
48522;SDS011;34315;50.150;11.070;2022-09-20T22:05:36;16.88;;;4.38;;
48522;SDS011;34315;50.150;11.070;2022-09-20T22:10:36;13.80;;;3.58;;
48522;SDS011;34315;50.150;11.070;2022-09-20T22:15:37;18.85;;;4.65;;
48522;SDS011;34315;50.150;11.070;2022-09-20T22:20:37;46.55;;;4.50;;
48522;SDS011;34315;50.150;11.070;2022-09-20T22:25:38;12.55;;;3.42;;
48522;SDS011;34315;50.150;11.070;2022-09-20T22:30:38;63.55;;;4.85;;
48522;SDS011;34315;50.150;11.070;2022-09-20T22:35:42;45.78;;;6.13;;
48522;SDS011;34315;50.150;11.070;2022-09-20T22:40:53;21.15;;;3.33;;
48522;SDS011;34315;50.150;11.070;2022-09-20T22:46:10;43.63;;;4.07;;
48522;SDS011;34315;50.150;11.070;2022-09-20T22:51:11;37.20;;;3.97;;
48522;SDS011;34315;50.150;11.070;2022-09-20T22:56:17;23.30;;;4.43;;
48522;SDS011;34315;50.150;11.070;2022-09-20T23:01:30;44.58;;;5.50;;
48522;SDS011;34315;50.150;11.070;2022-09-20T23:06:33;74.78;;;6.13;;
48522;SDS011;34315;50.150;11.070;2022-09-20T23:11:38;77.15;;;5.72;;
48522;SDS011;34315;50.150;11.070;2022-09-20T23:16:41;33.72;;;4.55;;
48522;SDS011;34315;50.150;11.070;2022-09-20T23:21:42;39.83;;;4.28;;
48522;SDS011;34315;50.150;11.070;2022-09-20T23:26:43;52.78;;;4.25;;
48522;SDS011;34315;50.150;11.070;2022-09-20T23:31:44;67.47;;;5.15;;
48522;SDS011;34315;50.150;11.070;2022-09-20T23:36:45;57.08;;;7.25;;
48522;SDS011;34315;50.150;11.070;2022-09-20T23:41:46;51.17;;;4.68;;
48522;SDS011;34315;50.150;11.070;2022-09-20T23:46:46;47.03;;;4.78;;
48522;SDS011;34315;50.150;11.070;2022-09-20T23:51:47;57.58;;;4.57;;
48522;SDS011;34315;50.150;11.070;2022-09-20T23:56:47;41.30;;;4.45;;
